Time;durP1;ratioP1;P1;durP2;ratioP2;P2;SDS_P1;SDS_P2;PMS_P1;PMS_P2;Temp;Humidity;BMP_temperature;BMP_pressure;BME280_temperature;BME280_humidity;BME280_pressure;Samples;Min_cycle;Max_cycle;Signal;HPM_P1;HPM_P2
2022/02/03 00:02:26;;;;;;;12.30;7.65;;;;;;;-6.28;90.92;99392.16;5009646;28;20112;-66
2022/02/03 00:05:01;;;;;;;5.03;4.60;;;;;;;-6.29;91.37;99390.44;4978320;28;20058;-66
2022/02/03 00:07:58;;;;;;;7.30;6.60;;;;;;;-6.29;90.64;99390.44;5010013;28;20049;-65
2022/02/03 00:26:14;;;;;;;17.83;8.90;;;;;;;-6.56;91.70;99396.22;4993108;28;20065;-66
2022/02/03 00:28:46;;;;;;;16.25;11.52;;;;;;;-6.62;91.35;99391.97;4991867;28;20081;-67
2022/02/03 00:31:30;;;;;;;14.48;9.20;;;;;;;-6.64;91.48;99397.88;5009615;28;20080;-67
2022/02/03 00:34:09;;;;;;;12.85;9.77;;;;;;;-6.66;91.52;99395.31;4994888;28;20477;-67
2022/02/03 00:50:35;;;;;;;8.85;7.95;;;;;;;-6.89;91.68;99399.41;4998709;28;20050;-66
2022/02/03 00:53:03;;;;;;;11.10;9.35;;;;;;;-6.88;91.89;99407.03;5013781;28;20052;-66
2022/02/03 00:55:31;;;;;;;12.07;10.38;;;;;;;-6.86;92.34;99402.81;4995726;28;20136;-65
2022/02/03 00:57:59;;;;;;;13.38;8.60;;;;;;;-6.88;92.07;99409.56;4963615;28;20053;-67
2022/02/03 01:00:25;;;;;;;14.13;9.00;;;;;;;-6.89;91.95;99409.53;5012841;28;20058;-67
2022/02/03 01:02:55;;;;;;;9.77;8.35;;;;;;;-6.91;92.06;99408.69;4963441;28;20045;-66
2022/02/03 01:05:21;;;;;;;17.95;10.50;;;;;;;-6.93;92.41;99415.41;4995457;28;20052;-66
2022/02/03 01:07:49;;;;;;;24.10;10.65;;;;;;;-6.99;92.24;99412.84;5012719;28;20140;-66
2022/02/03 01:10:21;;;;;;;13.57;10.52;;;;;;;-7.04;92.13;99409.44;4995587;28;20060;-67
2022/02/03 01:15:25;;;;;;;17.50;11.45;;;;;;;-7.16;92.18;99419.44;5012672;28;19972;-66
2022/02/03 01:52:58;;;;;;;7.50;6.85;;;;;;;-7.10;92.30;99432.22;4996370;28;20057;-65
2022/02/03 01:55:26;;;;;;;6.53;5.57;;;;;;;-7.05;92.08;99435.63;4978614;28;20501;-66
2022/02/03 01:58:17;;;;;;;15.25;10.93;;;;;;;-7.03;91.98;99432.25;5010523;28;20049;-66
2022/02/03 02:00:55;;;;;;;45.70;11.15;;;;;;;-7.03;91.83;99437.31;4994341;28;20060;-66
2022/02/03 02:03:46;;;;;;;13.15;9.02;;;;;;;-7.07;90.93;99432.22;4995911;28;20140;-67
2022/02/03 02:06:27;;;;;;;16.35;10.43;;;;;;;-7.10;91.48;99432.22;5012831;28;20050;-67
2022/02/03 02:09:08;;;;;;;11.55;9.05;;;;;;;-7.11;91.68;99433.03;4995588;28;20050;-66
2022/02/03 02:12:17;;;;;;;23.48;12.95;;;;;;;-7.08;91.23;99430.53;4994341;28;20056;-66
2022/02/03 02:40:04;;;;;;;24.60;8.77;;;;;;;-7.37;90.76;99440.41;4995689;28;20067;-67
2022/02/03 02:42:34;;;;;;;14.57;11.95;;;;;;;-7.28;90.81;99439.63;4993169;28;20421;-68
2022/02/03 02:45:09;;;;;;;10.68;7.93;;;;;;;-7.27;90.61;99446.41;4993187;28;20084;-65
2022/02/03 02:47:54;;;;;;;15.90;12.07;;;;;;;-7.39;90.18;99445.44;5010848;28;20506;-66
2022/02/03 02:50:58;;;;;;;28.83;14.60;;;;;;;-7.46;90.99;99448.75;4993140;28;20061;-66
2022/02/03 02:54:01;;;;;;;21.00;13.02;;;;;;;-7.57;91.36;99442.75;5007947;28;20282;-65
2022/02/03 02:56:30;;;;;;;21.00;13.38;;;;;;;-7.76;90.92;99458.59;4995544;28;20533;-65
2022/02/03 03:33:27;;;;;;;15.95;12.43;;;;;;;-7.59;91.56;99472.25;4938825;29;20104;-66
2022/02/03 03:36:04;;;;;;;14.75;11.82;;;;;;;-7.68;91.16;99476.38;4937808;29;20055;-67
2022/02/03 03:38:33;;;;;;;24.10;13.43;;;;;;;-7.82;91.59;99478.78;4984286;28;20129;-66
2022/02/03 03:41:00;;;;;;;22.02;12.52;;;;;;;-7.90;91.07;99485.41;5010275;28;20052;-67
2022/02/03 03:43:29;;;;;;;27.60;12.00;;;;;;;-7.90;91.72;99480.34;5011991;28;20049;-66
2022/02/03 03:45:55;;;;;;;26.08;15.48;;;;;;;-7.99;91.32;99473.50;5013099;28;20057;-67
2022/02/03 03:48:28;;;;;;;25.08;14.18;;;;;;;-7.86;92.32;99468.56;5015350;28;20041;-66
2022/02/03 03:50:56;;;;;;;26.70;13.45;;;;;;;-7.67;92.20;99473.88;4995497;28;20422;-67
2022/02/03 03:53:30;;;;;;;17.80;12.07;;;;;;;-7.57;92.22;99468.06;4980284;28;20045;-67
2022/02/03 04:32:05;;;;;;;21.02;11.07;;;;;;;-7.98;90.91;99497.97;4985918;28;20093;-68
2022/02/03 04:37:46;;;;;;;17.15;11.65;;;;;;;-7.67;91.33;99494.13;4982599;28;20132;-67
2022/02/03 05:07:58;;;;;;;31.10;15.13;;;;;;;-8.05;89.69;99525.72;4993270;28;20414;-67
2022/02/03 05:46:40;;;;;;;30.65;17.27;;;;;;;-8.54;91.53;99542.72;4992871;28;20050;-67
2022/02/03 06:03:12;;;;;;;9.25;8.27;;;;;;;-7.77;91.14;99537.91;5033103;28;20564;-68
2022/02/03 06:05:52;;;;;;;16.25;6.40;;;;;;;-7.72;90.31;99543.88;5021481;28;20053;-70
2022/02/03 06:08:27;;;;;;;29.67;15.73;;;;;;;-7.68;90.48;99553.22;4973111;28;20053;-71
2022/02/03 06:13:45;;;;;;;22.92;14.90;;;;;;;-7.62;89.42;99550.75;5005140;28;20049;-68
2022/02/03 06:21:29;;;;;;;32.72;18.65;;;;;;;-6.85;85.46;99571.06;5002986;28;20140;-69
2022/02/03 06:29:27;;;;;;;60.80;27.17;;;;;;;-7.59;83.40;99555.88;4983339;28;20115;-69
2022/02/03 06:31:53;;;;;;;69.45;28.73;;;;;;;-7.81;83.77;99564.03;5002024;28;20108;-69
2022/02/03 06:34:21;;;;;;;74.55;31.40;;;;;;;-7.70;83.66;99565.03;5000277;28;20050;-69
2022/02/03 06:36:50;;;;;;;72.80;32.03;;;;;;;-7.66;83.84;99566.78;4996779;28;20133;-70
2022/02/03 06:39:26;;;;;;;48.15;24.45;;;;;;;-7.58;84.37;99562.66;4998615;28;20041;-69
2022/02/03 06:41:55;;;;;;;51.63;26.02;;;;;;;-7.52;84.97;99565.25;4963800;28;20422;-68
2022/02/03 06:44:31;;;;;;;26.33;12.93;;;;;;;-7.76;86.40;99564.97;4996981;28;20077;-69
2022/02/03 06:47:03;;;;;;;43.63;20.40;;;;;;;-7.64;87.48;99559.19;4997043;28;20054;-68
2022/02/03 06:52:11;;;;;;;30.92;17.33;;;;;;;-7.43;86.88;99567.88;4979638;28;20113;-68
2022/02/03 06:54:56;;;;;;;38.63;22.25;;;;;;;-7.23;86.17;99554.63;5001363;28;20051;-68
2022/02/03 06:57:30;;;;;;;40.10;22.63;;;;;;;-6.25;85.37;99542.84;4996816;28;20473;-68
2022/02/03 07:00:00;;;;;;;45.40;24.52;;;;;;;-5.53;79.89;99539.78;4997591;28;20045;-68
2022/02/03 07:02:30;;;;;;;46.40;23.90;;;;;;;-5.32;77.44;99532.25;4979103;28;20054;-69
2022/02/03 07:04:57;;;;;;;40.50;21.42;;;;;;;-4.70;75.90;99545.94;4977878;28;20050;-68
2022/02/03 07:07:25;;;;;;;37.83;20.67;;;;;;;-4.50;74.20;99550.22;4979630;28;20051;-68
2022/02/03 07:09:52;;;;;;;43.22;22.23;;;;;;;-4.72;73.79;99548.50;4993121;28;20073;-69
2022/02/03 07:12:19;;;;;;;39.03;20.75;;;;;;;-5.13;75.47;99545.03;4979672;28;20085;-68
2022/02/03 07:14:45;;;;;;;42.83;22.20;;;;;;;-142.02;100.00;61695.09;4994405;28;20054;-68
2022/02/03 07:17:12;;;;;;;42.13;20.02;;;;;;;-142.02;100.00;61695.09;4997193;28;20545;-68
2022/02/03 07:19:49;;;;;;;37.08;20.67;;;;;;;-142.02;100.00;61695.09;4995607;28;20140;-68
2022/02/03 07:22:15;;;;;;;37.67;22.45;;;;;;;-142.02;100.00;61695.09;4999027;28;20108;-68
2022/02/03 07:24:41;;;;;;;38.42;20.83;;;;;;;-142.02;100.00;61695.09;4980029;28;20048;-68
2022/02/03 07:27:07;;;;;;;46.30;23.77;;;;;;;-142.02;100.00;61695.09;4995930;28;20046;-69
2022/02/03 07:29:33;;;;;;;49.35;25.45;;;;;;;-142.02;100.00;61695.09;4986162;28;20050;-69
2022/02/03 07:32:02;;;;;;;48.25;24.42;;;;;;;-142.02;100.00;61695.09;4993847;28;20228;-69
2022/02/03 07:34:29;;;;;;;52.28;27.13;;;;;;;-142.02;100.00;61695.09;4997530;28;20421;-69
2022/02/03 07:36:55;;;;;;;43.38;24.35;;;;;;;-142.02;100.00;61695.09;4994888;28;20057;-69
2022/02/03 07:39:21;;;;;;;34.97;18.05;;;;;;;-142.02;100.00;61695.09;4999652;28;20069;-70
2022/02/03 07:41:47;;;;;;;30.48;17.35;;;;;;;-5.13;75.47;99545.03;4980368;28;20081;-70
2022/02/03 07:44:15;;;;;;;31.13;18.73;;;;;;;-142.02;100.00;61695.09;4980444;28;20050;-70
2022/02/03 07:46:41;;;;;;;19.60;13.43;;;;;;;-142.02;100.00;61695.09;4999884;28;20077;-70
2022/02/03 07:49:08;;;;;;;30.08;16.15;;;;;;;-142.02;100.00;61695.09;4995556;28;20650;-71
2022/02/03 07:51:34;;;;;;;45.95;24.30;;;;;;;-142.02;100.00;61695.09;4994787;28;20118;-71
2022/02/03 07:54:00;;;;;;;35.47;17.67;;;;;;;-142.02;100.00;61695.09;4998299;28;20058;-71
2022/02/03 07:56:27;;;;;;;15.05;10.20;;;;;;;-142.02;100.00;61695.09;4994855;28;20469;-70
2022/02/03 07:58:53;;;;;;;46.10;23.95;;;;;;;-142.02;100.00;61695.09;4995026;28;20076;-70
2022/02/03 08:01:21;;;;;;;45.90;23.95;;;;;;;-142.02;100.00;61695.09;4995988;28;20089;-70
2022/02/03 08:03:48;;;;;;;40.75;24.85;;;;;;;-142.02;100.00;61695.09;4995861;28;20144;-69
2022/02/03 08:06:21;;;;;;;28.05;17.10;;;;;;;-142.02;100.00;61695.09;4978274;28;20038;-68
2022/02/03 08:08:54;;;;;;;20.95;12.23;;;;;;;-4.33;75.82;99586.75;4994004;28;20054;-69
2022/02/03 08:11:27;;;;;;;20.88;13.90;;;;;;;-142.02;100.00;61695.09;4980833;28;20105;-68
2022/02/03 08:13:59;;;;;;;9.70;8.25;;;;;;;-142.02;100.00;61695.09;4963782;28;20054;-69
2022/02/03 08:16:31;;;;;;;34.50;17.33;;;;;;;-142.02;100.00;61695.09;5002018;28;20108;-68
2022/02/03 08:19:05;;;;;;;22.30;13.77;;;;;;;-4.94;79.10;99590.03;4978784;28;20081;-69
2022/02/03 08:21:34;;;;;;;27.70;14.40;;;;;;;-4.90;79.46;99587.50;4982499;28;20101;-67
2022/02/03 08:26:43;;;;;;;25.48;15.77;;;;;;;-4.16;77.48;99591.84;4979020;28;20084;-68
2022/02/03 08:34:05;;;;;;;39.90;20.98;;;;;;;-142.02;100.00;61695.09;4980656;28;20049;-68
2022/02/03 08:36:36;;;;;;;39.03;20.33;;;;;;;-142.02;100.00;61695.09;5023068;28;20045;-68
2022/02/03 08:39:06;;;;;;;45.22;20.88;;;;;;;-4.16;77.48;99591.84;5007322;28;20049;-70
2022/02/03 08:41:33;;;;;;;35.63;17.88;;;;;;;-142.02;100.00;61695.09;5007921;28;20057;-68
2022/02/03 08:43:59;;;;;;;36.67;20.48;;;;;;;-142.02;100.00;61695.09;5026313;28;20429;-68
2022/02/03 08:46:26;;;;;;;46.42;22.38;;;;;;;-4.16;77.48;99591.84;5027054;28;20068;-68
2022/02/03 08:48:57;;;;;;;40.50;22.17;;;;;;;-3.91;75.04;99598.59;5011340;28;20084;-68
2022/02/03 08:51:24;;;;;;;36.13;19.80;;;;;;;-3.70;74.08;99595.19;5028211;28;20100;-68
2022/02/03 08:53:55;;;;;;;44.47;22.58;;;;;;;-3.99;74.67;99594.38;5009068;28;20054;-68
2022/02/03 08:56:35;;;;;;;49.47;22.30;;;;;;;-4.14;75.32;99599.47;5026340;28;20085;-68
2022/02/03 09:40:45;;;;;;;10.82;7.50;;;;;;;-5.60;83.29;99596.56;4958088;28;20181;-68
2022/02/03 09:57:13;;;;;;;27.40;15.52;;;;;;;-4.54;80.40;99593.50;5012021;28;20050;-69
2022/02/03 10:02:13;;;;;;;19.80;14.05;;;;;;;-4.64;80.86;99587.53;5014453;28;20505;-68
2022/02/03 10:04:47;;;;;;;34.92;20.60;;;;;;;-4.44;81.08;99596.06;5016721;28;20056;-68
2022/02/03 10:07:21;;;;;;;22.60;14.18;;;;;;;-142.02;100.00;61695.09;4979278;28;20601;-69
2022/02/03 10:09:48;;;;;;;27.77;15.70;;;;;;;-142.02;100.00;61695.09;5012468;28;20128;-69
2022/02/03 10:12:15;;;;;;;40.42;21.90;;;;;;;-142.02;100.00;61695.09;5010812;28;20188;-69
2022/02/03 10:14:42;;;;;;;41.28;21.88;;;;;;;-142.02;100.00;61695.09;5010853;28;20060;-69
2022/02/03 10:17:09;;;;;;;31.27;17.75;;;;;;;-3.65;76.45;99584.94;5011644;28;20068;-69
2022/02/03 10:19:42;;;;;;;15.52;11.80;;;;;;;-142.02;100.00;61695.09;4993515;28;20049;-71
2022/02/03 10:22:15;;;;;;;33.42;14.68;;;;;;;-142.02;100.00;61695.09;4978569;28;20056;-69
2022/02/03 10:24:45;;;;;;;22.67;13.40;;;;;;;-142.02;100.00;61695.09;4994171;28;20049;-69
2022/02/03 10:27:31;;;;;;;15.43;9.80;;;;;;;-4.52;82.08;99576.53;4977307;28;20550;-68
2022/02/03 10:30:07;;;;;;;32.35;18.58;;;;;;;-4.34;81.02;99567.19;5011189;28;20510;-68
2022/02/03 10:32:38;;;;;;;10.55;7.82;;;;;;;-4.53;81.37;99575.69;5011244;28;20076;-70
2022/02/03 10:35:25;;;;;;;14.20;10.05;;;;;;;-4.69;82.35;99573.13;5011001;28;20426;-69
2022/02/03 11:08:02;;;;;;;35.20;18.67;;;;;;;-3.23;76.63;99587.38;4949932;29;20055;-69
2022/02/03 11:10:39;;;;;;;33.25;17.20;;;;;;;-3.03;76.44;99582.19;4981937;28;20037;-68
2022/02/03 11:13:05;;;;;;;37.28;21.15;;;;;;;-3.10;77.48;99589.00;5010322;28;20104;-69
2022/02/03 11:15:33;;;;;;;26.60;17.88;;;;;;;-3.12;77.21;99595.00;4977058;28;20426;-69
2022/02/03 11:18:01;;;;;;;33.90;19.30;;;;;;;-3.13;77.01;99593.28;4992676;28;20050;-69
2022/02/03 11:20:29;;;;;;;29.75;16.75;;;;;;;-3.29;78.01;99590.81;4992753;28;20046;-68
2022/02/03 11:42:09;;;;;;;32.72;17.35;;;;;;;-3.49;79.11;99597.66;5010968;28;20054;-68
2022/02/03 11:50:17;;;;;;;14.07;9.70;;;;;;;-4.00;82.47;99587.56;4970343;28;20054;-69
2022/02/03 12:01:34;;;;;;;22.30;14.77;;;;;;;-4.12;83.32;99582.50;5010616;28;20152;-68
2022/02/03 12:18:05;;;;;;;31.98;16.88;;;;;;;-3.95;83.55;99593.50;4985266;28;20065;-70
2022/02/03 12:21:05;;;;;;;15.13;10.52;;;;;;;-3.87;83.41;99587.56;5009765;28;20402;-68
2022/02/03 12:26:20;;;;;;;16.70;10.77;;;;;;;-3.93;83.74;99590.13;5009792;28;20045;-68
2022/02/03 12:28:54;;;;;;;29.40;19.02;;;;;;;-3.90;84.14;99600.31;4977599;28;20046;-68
2022/02/03 12:39:36;;;;;;;34.63;18.80;;;;;;;-4.18;84.73;99587.56;5009241;28;20065;-68
2022/02/03 12:44:29;;;;;;;34.67;17.38;;;;;;;-4.07;84.63;99590.97;4995790;28;20061;-68
2022/02/03 12:47:01;;;;;;;14.90;11.13;;;;;;;-4.15;84.46;99587.56;5013264;28;20175;-68
2022/02/03 12:49:30;;;;;;;24.75;14.45;;;;;;;-4.19;84.38;99590.97;4995922;28;20053;-68
2022/02/03 12:51:56;;;;;;;21.02;11.07;;;;;;;-4.18;84.47;99592.66;5013360;28;20433;-68
2022/02/03 12:54:22;;;;;;;41.95;19.98;;;;;;;-4.18;85.04;99596.06;5013162;28;20576;-68
2022/02/03 12:56:48;;;;;;;31.40;14.77;;;;;;;-4.12;84.62;99597.78;5013379;28;20131;-68
2022/02/03 12:59:16;;;;;;;20.73;12.93;;;;;;;-4.18;84.83;99593.53;5012929;28;20518;-68
2022/02/03 13:01:45;;;;;;;19.10;12.32;;;;;;;-4.12;84.51;99602.88;5013145;28;20136;-68
2022/02/03 13:04:18;;;;;;;33.20;15.85;;;;;;;-4.10;84.21;99606.25;5013169;28;20160;-68
2022/02/03 13:06:57;;;;;;;29.90;16.58;;;;;;;-4.07;84.10;99606.25;4980321;28;20041;-68
2022/02/03 13:09:31;;;;;;;32.92;15.80;;;;;;;-4.16;84.48;99604.56;5012950;28;20054;-68
2022/02/03 13:12:06;;;;;;;47.20;20.52;;;;;;;-4.11;84.48;99605.41;5012922;28;20116;-68
2022/02/03 13:14:40;;;;;;;39.22;18.08;;;;;;;-4.10;84.38;99606.25;5011396;28;20052;-68
2022/02/03 13:17:12;;;;;;;35.60;17.73;;;;;;;-4.13;84.58;99606.28;5006001;28;20049;-68
2022/02/03 13:22:19;;;;;;;24.88;15.38;;;;;;;-4.24;84.96;99594.38;5012696;28;20050;-67
2022/02/03 13:27:47;;;;;;;24.08;13.52;;;;;;;-4.27;85.52;99602.03;5005925;28;20057;-67
2022/02/03 13:31:05;;;;;;;13.73;10.00;;;;;;;-4.33;85.14;99589.28;4991459;28;20541;-68
2022/02/03 13:33:29;;;;;;;31.42;16.85;;;;;;;-4.36;85.36;99599.47;5004247;28;20042;-67
2022/02/03 13:36:02;;;;;;;;;;;;;;;-142.02;100.00;61695.09;5002646;28;20569;-67
2022/02/03 13:41:11;;;;;;;26.63;13.48;;;;;;;-4.40;86.09;99605.41;4997715;28;20166;-69
2022/02/03 13:43:39;;;;;;;29.90;16.50;;;;;;;-4.40;85.77;99614.75;4983281;28;20125;-68
2022/02/03 13:46:05;;;;;;;24.65;13.57;;;;;;;-4.46;86.01;99613.06;5010501;28;20038;-68
2022/02/03 13:48:31;;;;;;;10.32;8.93;;;;;;;-4.46;86.28;99609.66;5003085;28;20061;-70
2022/02/03 13:51:01;;;;;;;20.20;11.70;;;;;;;-4.50;86.55;99611.34;5001571;28;20033;-69
2022/02/03 14:11:03;;;;;;;9.18;5.25;;;;;;;-4.51;86.22;99607.09;5011366;28;20058;-68
2022/02/03 14:21:21;;;;;;;42.17;20.00;;;;;;;-4.69;86.55;99609.63;5013593;28;20482;-68
2022/02/03 14:29:22;;;;;;;69.38;30.42;;;;;;;-5.02;86.89;99619.69;5031222;28;20171;-68
2022/02/03 14:31:57;;;;;;;;;;;;;;;-4.99;87.49;99614.63;5030760;28;20072;-68
2022/02/03 14:34:28;;;;;;;37.38;17.92;;;;;;;-5.02;87.80;99619.69;5030956;28;19924;-68
2022/02/03 14:37:22;;;;;;;67.78;31.27;;;;;;;-5.03;87.89;99625.63;5032315;28;20049;-68
2022/02/03 14:40:13;;;;;;;64.90;29.65;;;;;;;-5.02;88.06;99634.97;5014372;28;20466;-68
2022/02/03 14:42:41;;;;;;;67.72;31.85;;;;;;;-5.12;88.10;99634.06;5013254;28;20104;-67
2022/02/03 14:45:07;;;;;;;78.45;35.90;;;;;;;-5.20;88.25;99633.19;5031205;28;20456;-68
2022/02/03 14:47:34;;;;;;;68.78;34.15;;;;;;;-5.30;88.49;99637.38;5030976;28;20429;-68
2022/02/03 14:50:02;;;;;;;81.28;35.92;;;;;;;-5.31;89.13;99628.06;5013398;28;20056;-69
2022/02/03 14:52:34;;;;;;;78.63;37.10;;;;;;;-5.37;89.05;99637.34;5030774;28;20107;-68
2022/02/03 15:00:30;;;;;;;69.40;33.53;;;;;;;-5.57;90.21;99639.78;5029407;28;20065;-68
2022/02/03 15:02:56;;;;;;;86.68;40.60;;;;;;;-5.58;90.12;99634.69;5030682;28;20100;-68
2022/02/03 15:05:34;;;;;;;77.65;36.35;;;;;;;-5.57;90.39;99644.88;5030023;28;20060;-68
2022/02/03 15:08:06;;;;;;;58.80;29.48;;;;;;;-5.55;90.87;99644.88;5030697;28;20581;-68
2022/02/03 15:13:14;;;;;;;71.25;32.90;;;;;;;-5.52;90.90;99635.56;5014949;28;20053;-68
2022/02/03 15:15:40;;;;;;;69.80;31.73;;;;;;;-5.50;90.69;99633.91;5010213;28;20522;-68
2022/02/03 15:18:08;;;;;;;85.35;42.28;;;;;;;-5.50;90.64;99638.13;4992448;28;20128;-69
2022/02/03 15:20:38;;;;;;;80.40;35.25;;;;;;;-5.48;90.72;99633.91;5007957;28;20060;-68
2022/02/03 15:23:05;;;;;;;74.40;31.67;;;;;;;-5.45;90.74;99632.22;5012186;28;20449;-68
2022/02/03 15:25:31;;;;;;;67.22;33.67;;;;;;;-5.42;90.93;99641.56;4961524;28;20080;-67
2022/02/03 15:27:57;;;;;;;61.38;30.08;;;;;;;-5.35;90.66;99633.97;5010198;28;20092;-68
2022/02/03 15:30:24;;;;;;;67.03;28.95;;;;;;;-5.36;90.49;99632.25;5002657;28;20518;-68
2022/02/03 15:32:50;;;;;;;49.05;25.35;;;;;;;-5.34;90.39;99637.38;5010088;28;20502;-69
2022/02/03 15:35:26;;;;;;;70.97;33.53;;;;;;;-5.33;89.76;99633.97;5009738;28;20073;-68
2022/02/03 15:37:53;;;;;;;32.10;19.02;;;;;;;-5.37;90.05;99635.66;5002164;28;20465;-68
2022/02/03 15:40:23;;;;;;;55.13;24.00;;;;;;;-5.36;89.93;99632.25;5010462;28;20054;-68
2022/02/03 15:42:55;;;;;;;53.35;24.20;;;;;;;-5.38;90.14;99633.97;5010677;28;20054;-67
2022/02/03 15:45:21;;;;;;;49.30;25.73;;;;;;;-5.38;89.94;99636.50;4990603;28;20080;-68
2022/02/03 15:47:54;;;;;;;31.05;16.52;;;;;;;-5.38;90.01;99639.03;5001075;28;20403;-68
2022/02/03 16:17:27;;;;;;;67.53;32.55;;;;;;;-5.42;89.67;99652.56;5005527;28;20468;-68
2022/02/03 16:54:46;;;;;;;56.70;27.08;;;;;;;-5.82;90.83;99640.44;4997993;28;20046;-69
2022/02/03 16:57:16;;;;;;;52.28;22.85;;;;;;;-5.79;91.15;99646.41;5008277;28;20038;-68
2022/02/03 16:59:58;;;;;;;8.43;7.50;;;;;;;-5.85;91.32;99642.97;4996221;28;20429;-67
2022/02/03 17:02:24;;;;;;;60.70;29.45;;;;;;;-5.79;91.34;99643.00;5007370;28;20049;-68
2022/02/03 17:04:56;;;;;;;51.97;25.65;;;;;;;-5.81;91.39;99649.78;5000223;28;20698;-68
2022/02/03 17:07:22;;;;;;;56.50;25.10;;;;;;;-5.73;91.13;99650.69;4998886;28;20042;-68
2022/02/03 17:09:49;;;;;;;60.22;27.35;;;;;;;-5.75;90.74;99644.75;5007875;28;20107;-69
2022/02/03 17:12:16;;;;;;;69.40;33.58;;;;;;;-5.79;90.57;99645.53;4999523;28;20060;-68
2022/02/03 17:14:43;;;;;;;55.08;25.08;;;;;;;-5.76;90.94;99643.06;5000697;28;20052;-68
2022/02/03 17:17:08;;;;;;;55.95;24.15;;;;;;;-5.72;91.04;99641.34;4998755;28;20037;-69
2022/02/03 17:19:37;;;;;;;27.02;14.25;;;;;;;-5.71;91.03;99638.84;5001497;28;20514;-68
2022/02/03 17:22:03;;;;;;;64.78;28.60;;;;;;;-5.77;90.87;99641.34;5008092;28;20449;-68
2022/02/03 17:24:32;;;;;;;63.67;26.50;;;;;;;-5.73;90.66;99643.06;4979485;28;20050;-68
2022/02/03 17:27:09;;;;;;;45.10;23.25;;;;;;;-5.77;90.75;99641.34;4998573;28;20042;-67
2022/02/03 17:32:15;;;;;;;28.38;15.23;;;;;;;-5.71;91.03;99633.75;5012825;28;20053;-68
2022/02/03 18:10:24;;;;;;;45.17;20.17;;;;;;;-5.53;91.07;99641.47;5009612;28;20033;-68
2022/02/03 18:29:46;;;;;;;33.17;15.75;;;;;;;-5.61;91.96;99632.97;4997627;28;20048;-68
2022/02/03 18:35:08;;;;;;;55.50;25.63;;;;;;;-5.73;92.21;99621.88;5011980;28;20061;-68
2022/02/03 18:51:11;;;;;;;58.97;24.75;;;;;;;-5.80;92.90;99624.41;5011608;28;20049;-67
2022/02/03 18:56:33;;;;;;;66.63;27.60;;;;;;;-5.82;92.55;99631.13;5010869;28;20522;-68
2022/02/03 20:08:51;;;;;;;56.33;24.15;;;;;;;-6.11;93.12;99624.16;4995225;28;20041;-68
2022/02/03 20:10:52;;;;;;;56.90;24.33;;;;;;;-6.02;93.48;99632.72;4978025;28;20123;-68
2022/02/03 20:13:18;;;;;;;61.33;27.52;;;;;;;-6.01;94.10;99629.34;4997291;28;20573;-69
2022/02/03 20:15:46;;;;;;;50.40;23.35;;;;;;;-6.05;93.95;99634.41;4998302;28;20057;-68
2022/02/03 20:18:12;;;;;;;47.20;18.52;;;;;;;-5.97;94.07;99627.69;4977892;28;20046;-69
2022/02/03 20:20:39;;;;;;;54.85;25.10;;;;;;;-6.08;94.22;99635.22;4995553;28;20046;-68
2022/02/03 20:23:09;;;;;;;48.63;23.73;;;;;;;-6.01;94.37;99636.97;4978853;28;20061;-68
2022/02/03 20:25:36;;;;;;;28.27;16.30;;;;;;;-6.01;94.39;99636.09;4993180;28;20076;-68
2022/02/03 20:28:05;;;;;;;26.65;14.65;;;;;;;-6.09;94.08;99638.63;4996965;28;20101;-68
2022/02/03 20:30:31;;;;;;;17.73;9.20;;;;;;;-6.09;94.58;99632.69;4976929;28;20077;-68
2022/02/03 20:32:57;;;;;;;17.45;9.63;;;;;;;-6.13;94.87;99641.09;4979438;28;20054;-69
2022/02/03 20:35:23;;;;;;;14.43;8.80;;;;;;;-6.17;95.01;99630.06;4993522;28;20039;-68
2022/02/03 20:37:50;;;;;;;30.75;13.30;;;;;;;-6.16;95.03;99630.91;5003268;28;20048;-68
2022/02/03 20:40:16;;;;;;;38.47;15.65;;;;;;;-6.18;94.95;99632.59;4994827;28;20138;-68
2022/02/03 20:42:42;;;;;;;48.38;18.10;;;;;;;-6.17;95.00;99634.28;4998657;28;20069;-68
2022/02/03 20:45:08;;;;;;;58.95;23.55;;;;;;;-6.12;95.43;99637.72;4995917;28;20052;-68
2022/02/03 20:47:35;;;;;;;53.92;23.40;;;;;;;-6.21;95.23;99633.41;4996685;28;20119;-68
2022/02/03 20:50:03;;;;;;;49.53;24.00;;;;;;;-6.26;95.34;99640.16;4961798;28;20078;-69
2022/02/03 20:52:29;;;;;;;61.78;26.08;;;;;;;-6.39;94.86;99634.13;4982297;28;20053;-69
2022/02/03 20:54:55;;;;;;;56.53;25.13;;;;;;;-6.27;94.68;99637.59;4994978;28;20046;-69
2022/02/03 20:57:24;;;;;;;48.42;22.90;;;;;;;-6.31;95.00;99644.31;4981571;28;20054;-67
2022/02/03 21:05:06;;;;;;;38.40;19.80;;;;;;;-6.47;94.74;99643.34;4993714;28;20559;-67
2022/02/03 21:07:32;;;;;;;;;;;;;;;-6.45;94.64;99643.38;5012219;28;20057;-67
2022/02/03 21:10:04;;;;;;;50.95;22.35;;;;;;;-6.47;95.04;99640.78;5011864;28;19958;-67
2022/02/03 21:12:30;;;;;;;51.50;24.65;;;;;;;-6.39;95.30;99644.28;5013741;28;20461;-68
2022/02/03 21:14:57;;;;;;;48.03;24.15;;;;;;;-6.40;94.91;99646.78;4997179;28;20104;-67
2022/02/03 21:17:26;;;;;;;51.75;22.08;;;;;;;-6.35;95.81;99645.97;5012826;28;20097;-67
2022/02/03 21:19:52;;;;;;;60.55;26.77;;;;;;;-6.41;95.74;99647.63;4979830;28;20052;-67
2022/02/03 21:22:18;;;;;;;56.33;26.17;;;;;;;-6.43;95.58;99647.63;4995125;28;20064;-67
2022/02/03 21:24:44;;;;;;;60.38;27.33;;;;;;;-6.40;95.59;99652.72;4994445;28;20061;-67
2022/02/03 21:27:16;;;;;;;67.57;29.85;;;;;;;-6.37;95.38;99647.66;5011566;28;20077;-68
2022/02/03 21:29:43;;;;;;;48.13;24.63;;;;;;;-6.38;95.53;99645.13;5012588;28;20579;-68
2022/02/03 21:32:09;;;;;;;48.58;23.55;;;;;;;-6.40;95.59;99651.84;4995544;28;20104;-68
2022/02/03 21:34:35;;;;;;;46.13;23.75;;;;;;;-6.27;95.53;99652.81;4997385;28;20056;-67
2022/02/03 21:37:01;;;;;;;74.72;31.55;;;;;;;-6.26;95.36;99647.78;5011513;28;20049;-67
2022/02/03 21:39:27;;;;;;;60.65;27.35;;;;;;;-6.30;95.67;99647.72;5012792;28;20085;-68
2022/02/03 21:41:54;;;;;;;57.92;26.60;;;;;;;-6.36;95.32;99649.38;5006483;28;20062;-67
2022/02/03 21:44:22;;;;;;;58.40;27.23;;;;;;;-6.36;94.56;99651.06;4964383;28;20050;-67
2022/02/03 21:46:48;;;;;;;61.00;26.00;;;;;;;-6.36;94.66;99645.97;4977426;28;20058;-67
2022/02/03 21:49:15;;;;;;;63.20;28.70;;;;;;;-6.36;94.98;99643.44;4993430;28;20050;-67
2022/02/03 21:51:44;;;;;;;65.45;28.00;;;;;;;-6.33;94.98;99653.63;4993230;28;20058;-66
2022/02/03 21:54:11;;;;;;;63.35;29.67;;;;;;;-6.34;94.88;99647.69;4997412;28;20518;-67
2022/02/03 21:56:37;;;;;;;64.03;27.33;;;;;;;-6.39;94.63;99646.81;5012343;28;20057;-67
